createdAt,value
2023-01-09T00:01:26.253Z,8.40
2023-01-09T00:03:54.278Z,8.30
2023-01-09T00:06:22.459Z,8.30
2023-01-09T00:08:50.910Z,8.20
2023-01-09T00:11:18.920Z,8.20
2023-01-09T00:13:47.614Z,8.20
2023-01-09T00:16:17.868Z,8.30
2023-01-09T00:18:46.236Z,8.30
2023-01-09T00:21:14.859Z,8.30
2023-01-09T00:23:42.893Z,8.30
2023-01-09T00:26:13.302Z,8.20
2023-01-09T00:28:41.898Z,8.20
2023-01-09T00:31:10.714Z,8.20
2023-01-09T00:33:43.829Z,8.20
2023-01-09T00:36:12.894Z,8.10
2023-01-09T00:38:42.152Z,8.10
2023-01-09T00:41:13.615Z,8.20
2023-01-09T00:43:46.246Z,8.20
2023-01-09T00:46:16.075Z,8.20
2023-01-09T00:48:49.426Z,8.20
2023-01-09T00:51:19.179Z,8.20
2023-01-09T00:53:47.865Z,8.20
2023-01-09T00:56:18.709Z,8.20
2023-01-09T00:58:47.329Z,8.10
2023-01-09T01:01:15.780Z,8.10
2023-01-09T01:03:45.213Z,8.10
2023-01-09T01:06:30.790Z,8.10
2023-01-09T01:08:58.764Z,8.10
2023-01-09T01:11:26.941Z,8.10
2023-01-09T01:13:55.455Z,8.10
2023-01-09T01:16:23.513Z,8.10
2023-01-09T01:18:52.876Z,8.10
2023-01-09T01:21:20.988Z,8.10
2023-01-09T01:23:48.964Z,8.00
2023-01-09T01:26:17.769Z,8.00
2023-01-09T01:28:46.056Z,8.00
2023-01-09T01:31:18.635Z,8.00
2023-01-09T01:33:46.656Z,8.00
2023-01-09T01:36:17.627Z,7.90
2023-01-09T01:38:46.867Z,7.90
2023-01-09T01:41:29.301Z,8.00
2023-01-09T01:43:59.271Z,8.00
2023-01-09T01:46:27.373Z,7.90
2023-01-09T01:49:00.057Z,7.90
2023-01-09T01:51:31.422Z,7.90
2023-01-09T01:54:03.720Z,8.00
2023-01-09T01:56:36.714Z,8.00
2023-01-09T01:59:10.483Z,8.10
2023-01-09T02:01:41.229Z,8.10
2023-01-09T02:04:09.701Z,8.10
2023-01-09T02:06:39.688Z,8.10
2023-01-09T02:09:08.752Z,8.10
2023-01-09T02:11:36.782Z,8.00
2023-01-09T02:14:04.789Z,8.00
2023-01-09T02:16:48.006Z,8.00
2023-01-09T02:19:44.486Z,8.00
2023-01-09T02:22:26.149Z,8.00
2023-01-09T02:25:12.815Z,8.00
2023-01-09T02:28:21.805Z,8.00
2023-01-09T02:30:56.626Z,8.10
2023-01-09T02:33:40.497Z,8.10
2023-01-09T02:36:19.050Z,8.20
2023-01-09T02:38:58.164Z,8.20
2023-01-09T02:41:37.395Z,8.20
2023-01-09T02:44:23.922Z,8.30
2023-01-09T02:47:03.769Z,8.20
2023-01-09T02:49:33.419Z,8.20
2023-01-09T02:52:12.567Z,8.20
2023-01-09T02:54:51.855Z,8.20
2023-01-09T02:57:35.722Z,8.20
2023-01-09T03:00:12.029Z,8.20
2023-01-09T03:02:48.688Z,8.20
2023-01-09T03:05:23.651Z,8.20
2023-01-09T03:07:59.902Z,8.10
2023-01-09T03:10:34.391Z,8.10
2023-01-09T03:13:04.276Z,8.10
2023-01-09T03:15:37.377Z,8.10
2023-01-09T03:18:09.945Z,8.10
2023-01-09T03:20:39.659Z,8.00
2023-01-09T03:23:08.817Z,7.90
2023-01-09T03:25:36.986Z,7.90
2023-01-09T03:28:06.931Z,7.80
2023-01-09T03:30:36.821Z,7.70
2023-01-09T03:33:06.296Z,7.60
2023-01-09T03:35:34.275Z,7.60
2023-01-09T03:38:02.293Z,7.60
2023-01-09T03:40:31.348Z,7.60
2023-01-09T03:42:59.353Z,7.70
2023-01-09T03:45:27.432Z,7.70
2023-01-09T03:47:57.405Z,7.70
2023-01-09T03:50:26.779Z,7.70
2023-01-09T03:52:54.806Z,7.70
2023-01-09T03:55:22.772Z,7.70
2023-01-09T03:57:52.710Z,7.80
2023-01-09T04:00:21.420Z,7.70
2023-01-09T04:02:49.506Z,7.70
2023-01-09T04:05:17.855Z,7.70
2023-01-09T04:07:47.276Z,7.70
2023-01-09T04:10:15.292Z,7.80
2023-01-09T04:12:43.290Z,7.70
2023-01-09T04:15:12.207Z,7.80
2023-01-09T04:17:40.230Z,7.80
2023-01-09T04:20:09.235Z,7.80
2023-01-09T04:22:37.329Z,7.70
2023-01-09T04:25:07.631Z,7.70
2023-01-09T04:27:35.828Z,7.70
2023-01-09T04:30:03.816Z,7.70
2023-01-09T04:32:31.952Z,7.70
2023-01-09T04:34:59.922Z,7.70
2023-01-09T04:37:27.995Z,7.70
2023-01-09T04:39:56.665Z,7.70
2023-01-09T04:42:26.173Z,7.70
2023-01-09T04:44:54.635Z,7.70
2023-01-09T04:47:23.781Z,7.60
2023-01-09T04:49:52.060Z,7.60
2023-01-09T04:52:20.362Z,7.60
2023-01-09T04:54:48.344Z,7.60
2023-01-09T04:57:16.348Z,7.70
2023-01-09T04:59:45.813Z,7.70
2023-01-09T05:02:13.925Z,7.60
2023-01-09T05:04:41.942Z,7.60
2023-01-09T05:07:09.966Z,7.60
2023-01-09T05:09:37.947Z,7.60
2023-01-09T05:12:06.609Z,7.60
2023-01-09T05:14:34.609Z,7.60
2023-01-09T05:17:03.976Z,7.50
2023-01-09T05:19:31.964Z,7.50
2023-01-09T05:21:59.961Z,7.50
2023-01-09T05:24:28.023Z,7.50
2023-01-09T05:26:56.047Z,7.50
2023-01-09T05:29:24.116Z,7.50
2023-01-09T05:31:52.856Z,7.40
2023-01-09T05:34:22.599Z,7.40
2023-01-09T05:36:50.644Z,7.40
2023-01-09T05:39:18.610Z,7.30
2023-01-09T05:41:46.730Z,7.30
2023-01-09T05:44:14.729Z,7.20
2023-01-09T05:46:42.763Z,7.20
2023-01-09T05:49:10.739Z,7.10
2023-01-09T05:51:40.145Z,7.10
2023-01-09T05:54:08.467Z,7.00
2023-01-09T05:56:36.457Z,7.00
2023-01-09T05:59:04.456Z,7.00
2023-01-09T06:01:32.505Z,7.00
2023-01-09T06:04:00.596Z,7.00
2023-01-09T06:06:28.571Z,7.00
2023-01-09T06:08:57.911Z,6.90
2023-01-09T06:11:25.946Z,6.80
2023-01-09T06:13:53.946Z,6.80
2023-01-09T06:16:22.015Z,6.80
2023-01-09T06:18:50.508Z,6.70
2023-01-09T06:21:18.496Z,6.60
2023-01-09T06:23:46.536Z,6.60
2023-01-09T06:26:15.970Z,6.50
2023-01-09T06:28:44.773Z,6.50
2023-01-09T06:31:13.303Z,6.40
2023-01-09T06:33:41.688Z,6.30
2023-01-09T06:36:10.201Z,6.40
2023-01-09T06:38:38.214Z,6.40
2023-01-09T06:41:06.412Z,6.50
2023-01-09T06:43:35.944Z,6.50
2023-01-09T06:46:05.590Z,6.40
2023-01-09T06:48:33.684Z,6.30
2023-01-09T06:51:01.879Z,6.20
2023-01-09T06:53:30.004Z,6.10
2023-01-09T06:55:57.995Z,6.10
2023-01-09T06:58:26.013Z,6.00
2023-01-09T07:00:56.324Z,5.90
2023-01-09T07:03:24.373Z,5.80
2023-01-09T07:05:52.557Z,5.80
2023-01-09T07:08:20.560Z,5.80
2023-01-09T07:10:48.557Z,5.80
2023-01-09T07:13:16.577Z,5.80
2023-01-09T07:15:44.632Z,5.90
2023-01-09T07:18:14.060Z,5.90
2023-01-09T07:20:42.352Z,6.00
2023-01-09T07:23:12.932Z,6.10
2023-01-09T07:25:41.113Z,6.10
2023-01-09T07:28:09.118Z,6.10
2023-01-09T07:30:37.141Z,6.20
2023-01-09T07:33:05.269Z,6.20
2023-01-09T07:35:34.981Z,6.20
2023-01-09T07:38:02.979Z,6.20
2023-01-09T07:40:30.988Z,6.10
2023-01-09T07:42:58.996Z,6.10
2023-01-09T07:45:27.013Z,6.10
2023-01-09T07:47:55.023Z,6.20
2023-01-09T07:50:22.986Z,6.10
2023-01-09T07:52:52.370Z,6.20
2023-01-09T07:55:20.379Z,6.20
2023-01-09T07:57:50.098Z,6.20
2023-01-09T08:00:21.040Z,6.30
2023-01-09T08:02:53.104Z,6.30
2023-01-09T08:05:21.558Z,6.40
2023-01-09T08:07:50.918Z,6.40
2023-01-09T08:10:21.076Z,6.40
2023-01-09T08:12:50.171Z,6.40
2023-01-09T08:15:18.180Z,6.40
2023-01-09T08:17:47.039Z,6.40
2023-01-09T08:20:17.013Z,6.40
2023-01-09T08:22:49.628Z,6.40
2023-01-09T08:25:18.456Z,6.40
2023-01-09T08:27:47.968Z,6.50
2023-01-09T08:30:17.067Z,6.50
2023-01-09T08:32:49.268Z,6.40
2023-01-09T08:35:17.388Z,6.40
2023-01-09T08:37:45.663Z,6.40
2023-01-09T08:40:14.546Z,6.40
2023-01-09T08:43:00.455Z,6.50
2023-01-09T08:45:47.173Z,6.40
2023-01-09T08:48:15.214Z,6.50
2023-01-09T08:50:43.553Z,6.60
2023-01-09T08:53:12.016Z,6.60
2023-01-09T08:55:40.084Z,6.70
2023-01-09T08:58:08.536Z,6.80
2023-01-09T09:00:37.975Z,6.80
2023-01-09T09:03:06.310Z,6.80
2023-01-09T09:05:34.566Z,6.70
2023-01-09T09:08:03.605Z,6.70
2023-01-09T09:10:32.127Z,6.70
2023-01-09T09:13:00.657Z,6.70
2023-01-09T09:15:29.624Z,6.70
2023-01-09T09:18:00.752Z,6.80
2023-01-09T09:20:31.595Z,6.80
2023-01-09T09:22:59.885Z,6.70
2023-01-09T09:25:28.480Z,6.70
2023-01-09T09:27:56.987Z,6.80
2023-01-09T09:30:25.902Z,6.90
2023-01-09T09:32:53.934Z,7.00
2023-01-09T09:35:23.656Z,7.10
2023-01-09T09:37:55.629Z,7.10
2023-01-09T09:40:36.398Z,7.10
2023-01-09T09:43:49.788Z,7.10
2023-01-09T09:46:29.805Z,7.00
2023-01-09T09:49:05.077Z,7.10
2023-01-09T09:51:56.403Z,7.20
2023-01-09T09:54:32.776Z,7.10
2023-01-09T09:57:04.944Z,7.20
2023-01-09T09:59:37.562Z,7.20
2023-01-09T10:02:23.855Z,7.30
2023-01-09T10:04:57.884Z,7.40
2023-01-09T10:07:31.733Z,7.40
2023-01-09T10:10:05.083Z,7.50
2023-01-09T10:12:38.885Z,7.50
2023-01-09T10:15:17.045Z,7.60
2023-01-09T10:18:05.893Z,7.60
2023-01-09T10:20:58.873Z,7.60
2023-01-09T10:23:57.085Z,7.50
2023-01-09T10:26:30.725Z,7.50
2023-01-09T10:29:19.615Z,7.60
2023-01-09T10:32:00.619Z,7.70
2023-01-09T10:34:39.242Z,7.70
2023-01-09T10:37:11.225Z,7.80
2023-01-09T10:39:45.818Z,7.90
2023-01-09T10:42:22.888Z,7.90
2023-01-09T10:44:56.376Z,7.90
2023-01-09T10:47:29.743Z,7.80
2023-01-09T10:49:58.357Z,7.80
2023-01-09T10:52:33.484Z,7.70
2023-01-09T10:55:08.522Z,7.70
2023-01-09T10:57:43.351Z,7.70
2023-01-09T11:00:22.305Z,7.80
2023-01-09T11:02:52.211Z,7.80
2023-01-09T11:05:23.862Z,7.80
2023-01-09T11:07:56.653Z,7.70
2023-01-09T11:10:46.896Z,7.80
2023-01-09T11:13:19.231Z,7.70
2023-01-09T11:15:59.662Z,7.70
2023-01-09T11:18:28.216Z,7.70
2023-01-09T11:20:56.284Z,7.70
2023-01-09T11:23:31.025Z,7.80
2023-01-09T11:26:02.395Z,7.70
2023-01-09T11:28:30.873Z,7.70
2023-01-09T11:31:01.274Z,7.60
2023-01-09T11:33:31.228Z,7.60
2023-01-09T11:36:07.948Z,7.60
2023-01-09T11:38:50.435Z,7.60
2023-01-09T11:41:22.463Z,7.50
2023-01-09T11:43:52.478Z,7.50
2023-01-09T11:46:35.954Z,7.50
2023-01-09T11:49:06.558Z,7.50
2023-01-09T11:51:36.876Z,7.50
2023-01-09T11:54:17.081Z,7.50
2023-01-09T11:56:47.212Z,7.50
2023-01-09T11:59:16.966Z,7.50
2023-01-09T12:02:13.209Z,7.50
2023-01-09T12:04:49.300Z,7.50
2023-01-09T12:07:40.627Z,7.60
2023-01-09T12:10:26.571Z,7.70
2023-01-09T12:13:04.304Z,7.70
2023-01-09T12:15:39.752Z,7.70
2023-01-09T12:18:24.790Z,7.70
2023-01-09T12:21:13.266Z,7.70
2023-01-09T12:23:54.072Z,7.90
2023-01-09T12:26:25.780Z,8.10
2023-01-09T12:29:14.259Z,8.20
2023-01-09T12:32:05.455Z,8.20
2023-01-09T12:35:00.431Z,8.30
2023-01-09T12:37:41.787Z,8.30
2023-01-09T12:40:25.497Z,8.50
2023-01-09T12:43:00.015Z,8.50
2023-01-09T12:45:38.478Z,8.50
2023-01-09T12:48:19.324Z,8.50
2023-01-09T12:51:09.630Z,8.40
2023-01-09T12:53:42.050Z,8.40
2023-01-09T12:56:12.643Z,8.40
2023-01-09T12:58:45.632Z,8.40
2023-01-09T13:01:18.654Z,8.50
2023-01-09T13:03:52.077Z,8.60
2023-01-09T13:06:22.637Z,8.50
2023-01-09T13:08:57.870Z,8.60
2023-01-09T13:11:29.876Z,8.60
2023-01-09T13:14:03.335Z,8.40
2023-01-09T13:16:37.318Z,8.40
2023-01-09T13:19:09.794Z,8.40
2023-01-09T13:21:39.595Z,8.40
2023-01-09T13:24:16.789Z,8.30
2023-01-09T13:26:48.745Z,8.20
2023-01-09T13:29:21.571Z,8.20
2023-01-09T13:32:15.857Z,8.20
2023-01-09T13:34:47.678Z,8.10
2023-01-09T13:37:24.371Z,7.90
2023-01-09T13:40:00.311Z,7.80
2023-01-09T13:42:39.802Z,7.70
2023-01-09T13:45:20.139Z,7.60
2023-01-09T13:48:25.220Z,7.50
2023-01-09T13:50:55.885Z,7.60
2023-01-09T13:53:48.546Z,7.70
2023-01-09T13:56:16.554Z,7.60
2023-01-09T13:59:06.171Z,7.60
2023-01-09T14:01:47.710Z,7.40
2023-01-09T14:04:46.042Z,7.40
2023-01-09T14:07:32.187Z,7.30
2023-01-09T14:10:01.686Z,7.40
2023-01-09T14:12:32.458Z,7.30
2023-01-09T14:15:03.106Z,7.40
2023-01-09T14:17:36.318Z,7.30
2023-01-09T14:20:09.739Z,7.30
2023-01-09T14:22:50.292Z,7.40
2023-01-09T14:25:27.354Z,7.40
2023-01-09T14:28:08.453Z,7.40
2023-01-09T14:30:38.481Z,7.40
2023-01-09T14:33:27.316Z,7.40
2023-01-09T14:36:06.157Z,7.40
2023-01-09T14:38:37.575Z,7.50
2023-01-09T14:41:10.378Z,7.50
2023-01-09T14:43:52.821Z,7.50
2023-01-09T14:46:22.119Z,7.50
2023-01-09T14:49:06.435Z,7.50
2023-01-09T14:51:39.693Z,7.40
2023-01-09T14:54:20.484Z,7.40
2023-01-09T14:56:48.720Z,7.40
2023-01-09T14:59:17.398Z,7.40
2023-01-09T15:01:49.467Z,7.30
2023-01-09T15:04:31.704Z,7.20
2023-01-09T15:07:01.253Z,7.30
2023-01-09T15:09:33.192Z,7.20
2023-01-09T15:12:06.342Z,7.20
2023-01-09T15:14:39.833Z,7.10
2023-01-09T15:17:14.660Z,7.00
2023-01-09T15:19:46.098Z,7.00
2023-01-09T15:22:30.616Z,6.90
2023-01-09T15:24:59.310Z,6.80
2023-01-09T15:27:27.584Z,6.70
2023-01-09T15:29:55.546Z,6.60
2023-01-09T15:32:27.098Z,6.50
2023-01-09T15:34:56.089Z,6.40
2023-01-09T15:37:30.651Z,6.40
2023-01-09T15:40:00.689Z,6.40
2023-01-09T15:42:49.864Z,6.40
2023-01-09T15:45:24.015Z,6.40
2023-01-09T15:47:52.218Z,6.50
2023-01-09T15:50:27.170Z,6.50
2023-01-09T15:52:57.919Z,6.40
2023-01-09T15:55:35.116Z,6.50
2023-01-09T15:58:04.272Z,6.50
2023-01-09T16:00:41.642Z,6.50
2023-01-09T16:03:22.820Z,6.60
2023-01-09T16:05:54.709Z,6.50
2023-01-09T16:08:29.386Z,6.50
2023-01-09T16:11:00.443Z,6.50
2023-01-09T16:13:30.857Z,6.50
2023-01-09T16:16:01.284Z,6.40
2023-01-09T16:18:32.339Z,6.30
2023-01-09T16:21:05.478Z,6.20
2023-01-09T16:23:36.282Z,6.30
2023-01-09T16:26:11.521Z,6.30
2023-01-09T16:28:42.726Z,6.30
2023-01-09T16:31:21.144Z,6.30
2023-01-09T16:33:54.303Z,6.30
2023-01-09T16:36:22.337Z,6.30
2023-01-09T16:38:51.754Z,6.30
2023-01-09T16:41:40.332Z,6.20
2023-01-09T16:44:10.688Z,6.20
2023-01-09T16:46:40.561Z,6.10
2023-01-09T16:49:18.971Z,6.00
2023-01-09T16:51:47.075Z,6.00
2023-01-09T16:54:16.810Z,6.00
2023-01-09T16:56:48.445Z,6.00
2023-01-09T16:59:20.558Z,6.00
2023-01-09T17:01:48.991Z,6.00
2023-01-09T17:04:20.037Z,6.00
2023-01-09T17:06:49.914Z,6.10
2023-01-09T17:09:22.185Z,6.10
2023-01-09T17:11:50.391Z,6.10
2023-01-09T17:14:18.371Z,6.00
2023-01-09T17:16:46.907Z,5.90
2023-01-09T17:19:19.780Z,5.80
2023-01-09T17:21:48.574Z,5.80
2023-01-09T17:24:33.950Z,5.70
2023-01-09T17:27:21.772Z,5.60
2023-01-09T17:29:49.909Z,5.60
2023-01-09T17:32:19.048Z,5.60
2023-01-09T17:34:47.103Z,5.60
2023-01-09T17:37:16.496Z,5.60
2023-01-09T17:39:44.819Z,5.60
2023-01-09T17:42:14.349Z,5.50
2023-01-09T17:44:42.357Z,5.50
2023-01-09T17:47:15.223Z,5.50
2023-01-09T17:49:43.578Z,5.60
2023-01-09T17:52:11.608Z,5.60
2023-01-09T17:54:39.797Z,5.70
2023-01-09T17:57:08.615Z,5.80
2023-01-09T17:59:38.092Z,5.80
2023-01-09T18:02:07.220Z,5.80
2023-01-09T18:04:38.709Z,5.90
2023-01-09T18:07:06.887Z,5.80
2023-01-09T18:09:34.917Z,5.80
2023-01-09T18:12:03.329Z,5.90
2023-01-09T18:14:31.625Z,5.80
2023-01-09T18:17:02.455Z,5.80
2023-01-09T18:19:30.724Z,5.80
2023-01-09T18:22:00.309Z,5.70
2023-01-09T18:24:29.026Z,5.70
2023-01-09T18:26:57.117Z,5.60
2023-01-09T18:29:25.396Z,5.60
2023-01-09T18:31:53.515Z,5.60
2023-01-09T18:34:22.992Z,5.70
2023-01-09T18:36:51.095Z,5.70
2023-01-09T18:39:19.324Z,5.80
2023-01-09T18:41:47.379Z,5.80
2023-01-09T18:44:17.585Z,5.80
2023-01-09T18:46:47.187Z,5.90
2023-01-09T18:49:15.258Z,5.90
2023-01-09T18:51:44.619Z,5.90
2023-01-09T18:54:13.244Z,5.90
2023-01-09T18:56:41.428Z,6.00
2023-01-09T18:59:10.813Z,6.00
2023-01-09T19:01:38.907Z,6.00
2023-01-09T19:04:07.081Z,6.10
2023-01-09T19:06:35.123Z,6.10
2023-01-09T19:09:05.296Z,6.10
2023-01-09T19:11:33.338Z,6.10
2023-01-09T19:14:01.363Z,6.10
2023-01-09T19:16:29.415Z,6.10
2023-01-09T19:18:58.205Z,6.10
2023-01-09T19:21:26.956Z,6.10
2023-01-09T19:23:55.046Z,6.20
2023-01-09T19:26:26.003Z,6.20
2023-01-09T19:28:57.475Z,6.20
2023-01-09T19:31:28.139Z,6.20
2023-01-09T19:33:56.900Z,6.10
2023-01-09T19:36:24.985Z,6.10
2023-01-09T19:38:57.105Z,6.10
2023-01-09T19:41:26.502Z,6.20
2023-01-09T19:43:54.688Z,6.20
2023-01-09T19:46:24.549Z,6.20
2023-01-09T19:48:53.268Z,6.20
2023-01-09T19:51:22.843Z,6.20
2023-01-09T19:53:53.761Z,6.20
2023-01-09T19:56:23.362Z,6.20
2023-01-09T19:58:54.518Z,6.20
2023-01-09T20:01:24.819Z,6.30
2023-01-09T20:03:53.995Z,6.20
2023-01-09T20:06:24.463Z,6.20
2023-01-09T20:08:54.713Z,6.10
2023-01-09T20:11:23.850Z,6.20
2023-01-09T20:13:55.488Z,6.20
2023-01-09T20:16:28.141Z,6.30
2023-01-09T20:18:57.904Z,6.30
2023-01-09T20:21:27.531Z,6.30
2023-01-09T20:23:57.762Z,6.30
2023-01-09T20:26:26.217Z,6.40
2023-01-09T20:28:56.276Z,6.40
2023-01-09T20:31:28.013Z,6.40
2023-01-09T20:33:56.652Z,6.30
2023-01-09T20:36:27.575Z,6.20
2023-01-09T20:38:56.077Z,6.30
2023-01-09T20:41:25.364Z,6.40
2023-01-09T20:43:56.294Z,6.40
2023-01-09T20:46:25.950Z,6.40
2023-01-09T20:48:56.321Z,6.40
2023-01-09T20:51:24.437Z,6.40
2023-01-09T20:53:55.760Z,6.40
2023-01-09T20:56:25.049Z,6.40
2023-01-09T20:58:55.095Z,6.40
2023-01-09T21:01:23.160Z,6.40
2023-01-09T21:03:51.793Z,6.40
2023-01-09T21:06:21.524Z,6.40
2023-01-09T21:08:50.882Z,6.50
2023-01-09T21:11:19.990Z,6.50
2023-01-09T21:13:48.157Z,6.40
2023-01-09T21:16:20.070Z,6.50
2023-01-09T21:18:49.049Z,6.40
2023-01-09T21:21:19.270Z,6.40
2023-01-09T21:23:48.540Z,6.40
2023-01-09T21:26:18.017Z,6.40
2023-01-09T21:28:49.083Z,6.40
2023-01-09T21:31:20.707Z,6.50
2023-01-09T21:33:49.636Z,6.50
2023-01-09T21:36:17.728Z,6.50
2023-01-09T21:38:46.808Z,6.50
2023-01-09T21:41:39.894Z,6.50
2023-01-09T21:44:29.276Z,6.50
2023-01-09T21:46:59.835Z,6.50
2023-01-09T21:49:34.720Z,6.50
2023-01-09T21:52:03.498Z,6.50
2023-01-09T21:54:31.914Z,6.50
2023-01-09T21:57:00.117Z,6.50
2023-01-09T21:59:28.990Z,6.50
2023-01-09T22:01:58.957Z,6.50
2023-01-09T22:04:30.373Z,6.50
2023-01-09T22:06:58.465Z,6.60
2023-01-09T22:09:26.600Z,6.60
2023-01-09T22:11:54.763Z,6.60
2023-01-09T22:14:22.894Z,6.50
2023-01-09T22:16:50.928Z,6.50
2023-01-09T22:19:20.463Z,6.50
2023-01-09T22:21:48.964Z,6.50
2023-01-09T22:24:19.145Z,6.40
2023-01-09T22:26:47.229Z,6.40
2023-01-09T22:29:16.049Z,6.40
2023-01-09T22:31:44.216Z,6.50
2023-01-09T22:34:15.907Z,6.50
2023-01-09T22:36:46.663Z,6.50
2023-01-09T22:39:16.058Z,6.50
2023-01-09T22:41:44.431Z,6.50
2023-01-09T22:44:13.712Z,6.50
2023-01-09T22:46:41.736Z,6.50
2023-01-09T22:49:11.945Z,6.50
2023-01-09T22:51:40.046Z,6.50
2023-01-09T22:54:09.444Z,6.50
2023-01-09T22:56:37.613Z,6.50
2023-01-09T22:59:05.605Z,6.50
2023-01-09T23:01:33.641Z,6.50
2023-01-09T23:04:03.662Z,6.50
2023-01-09T23:06:31.700Z,6.40
2023-01-09T23:08:59.670Z,6.40
2023-01-09T23:11:48.231Z,6.30
2023-01-09T23:14:16.268Z,6.40
2023-01-09T23:16:44.366Z,6.40
2023-01-09T23:19:15.646Z,6.40
2023-01-09T23:21:44.906Z,6.40
2023-01-09T23:24:13.519Z,6.30
2023-01-09T23:26:43.613Z,6.30
2023-01-09T23:29:12.694Z,6.20
2023-01-09T23:31:40.858Z,6.10
2023-01-09T23:34:09.316Z,6.00
2023-01-09T23:36:37.374Z,6.00
2023-01-09T23:39:09.007Z,6.00
2023-01-09T23:41:54.816Z,6.00
2023-01-09T23:44:24.211Z,6.10
2023-01-09T23:46:52.945Z,6.00
2023-01-09T23:49:21.348Z,6.10
2023-01-09T23:51:49.323Z,6.10
2023-01-09T23:54:17.762Z,6.10
2023-01-09T23:56:45.871Z,6.10
2023-01-09T23:59:14.844Z,6.10
